sensor_id;sensor_type;location;lat;lon;timestamp;P1;durP1;ratioP1;P2;durP2;ratioP2
37288;SDS011;23174;49.462;11.000;2022-08-25T00:01:59;8.70;;;7.10;;
37288;SDS011;23174;49.462;11.000;2022-08-25T00:04:01;8.38;;;7.22;;
37288;SDS011;23174;49.462;11.000;2022-08-25T00:06:04;6.97;;;6.47;;
37288;SDS011;23174;49.462;11.000;2022-08-25T00:08:05;6.88;;;6.25;;
37288;SDS011;23174;49.462;11.000;2022-08-25T00:10:06;7.72;;;7.10;;
37288;SDS011;23174;49.462;11.000;2022-08-25T00:12:08;7.80;;;6.43;;
37288;SDS011;23174;49.462;11.000;2022-08-25T00:14:10;7.65;;;6.95;;
37288;SDS011;23174;49.462;11.000;2022-08-25T00:16:14;7.85;;;6.55;;
37288;SDS011;23174;49.462;11.000;2022-08-25T00:18:16;6.97;;;6.38;;
37288;SDS011;23174;49.462;11.000;2022-08-25T00:20:17;7.63;;;6.68;;
37288;SDS011;23174;49.462;11.000;2022-08-25T00:22:18;7.40;;;6.70;;
37288;SDS011;23174;49.462;11.000;2022-08-25T00:24:19;7.50;;;6.93;;
37288;SDS011;23174;49.462;11.000;2022-08-25T00:26:20;7.15;;;6.57;;
37288;SDS011;23174;49.462;11.000;2022-08-25T00:28:21;7.88;;;7.13;;
37288;SDS011;23174;49.462;11.000;2022-08-25T00:30:22;8.23;;;7.40;;
37288;SDS011;23174;49.462;11.000;2022-08-25T00:32:23;8.65;;;7.53;;
37288;SDS011;23174;49.462;11.000;2022-08-25T00:34:25;9.95;;;7.25;;
37288;SDS011;23174;49.462;11.000;2022-08-25T00:36:29;7.97;;;7.28;;
37288;SDS011;23174;49.462;11.000;2022-08-25T00:38:29;7.45;;;6.75;;
37288;SDS011;23174;49.462;11.000;2022-08-25T00:40:30;8.15;;;6.68;;
37288;SDS011;23174;49.462;11.000;2022-08-25T00:42:31;7.88;;;7.18;;
37288;SDS011;23174;49.462;11.000;2022-08-25T00:44:32;7.43;;;6.70;;
37288;SDS011;23174;49.462;11.000;2022-08-25T00:46:42;7.97;;;7.30;;
37288;SDS011;23174;49.462;11.000;2022-08-25T00:48:58;7.82;;;6.80;;
37288;SDS011;23174;49.462;11.000;2022-08-25T00:51:01;7.40;;;6.70;;
37288;SDS011;23174;49.462;11.000;2022-08-25T00:53:03;7.75;;;7.15;;
37288;SDS011;23174;49.462;11.000;2022-08-25T00:55:06;7.60;;;7.00;;
37288;SDS011;23174;49.462;11.000;2022-08-25T00:57:13;6.95;;;6.35;;
37288;SDS011;23174;49.462;11.000;2022-08-25T00:59:18;7.93;;;7.00;;
37288;SDS011;23174;49.462;11.000;2022-08-25T01:01:20;8.20;;;7.15;;
37288;SDS011;23174;49.462;11.000;2022-08-25T01:03:21;7.80;;;7.10;;
37288;SDS011;23174;49.462;11.000;2022-08-25T01:05:24;9.70;;;7.13;;
37288;SDS011;23174;49.462;11.000;2022-08-25T01:07:27;7.95;;;7.13;;
37288;SDS011;23174;49.462;11.000;2022-08-25T01:09:28;7.40;;;6.82;;
37288;SDS011;23174;49.462;11.000;2022-08-25T01:11:32;8.63;;;7.53;;
37288;SDS011;23174;49.462;11.000;2022-08-25T01:13:38;7.35;;;6.75;;
37288;SDS011;23174;49.462;11.000;2022-08-25T01:15:41;8.07;;;7.45;;
37288;SDS011;23174;49.462;11.000;2022-08-25T01:17:50;8.25;;;7.43;;
37288;SDS011;23174;49.462;11.000;2022-08-25T01:19:53;7.97;;;7.28;;
37288;SDS011;23174;49.462;11.000;2022-08-25T01:21:55;7.53;;;6.82;;
37288;SDS011;23174;49.462;11.000;2022-08-25T01:23:56;9.75;;;7.63;;
37288;SDS011;23174;49.462;11.000;2022-08-25T01:26:32;7.43;;;6.90;;
37288;SDS011;23174;49.462;11.000;2022-08-25T01:28:27;10.32;;;6.60;;
37288;SDS011;23174;49.462;11.000;2022-08-25T01:30:28;8.80;;;7.07;;
37288;SDS011;23174;49.462;11.000;2022-08-25T01:32:32;10.40;;;6.90;;
37288;SDS011;23174;49.462;11.000;2022-08-25T01:34:35;8.75;;;7.78;;
37288;SDS011;23174;49.462;11.000;2022-08-25T01:36:38;8.20;;;7.45;;
37288;SDS011;23174;49.462;11.000;2022-08-25T01:38:40;8.90;;;8.00;;
37288;SDS011;23174;49.462;11.000;2022-08-25T01:40:41;8.40;;;7.60;;
37288;SDS011;23174;49.462;11.000;2022-08-25T01:44:43;8.65;;;7.50;;
37288;SDS011;23174;49.462;11.000;2022-08-25T01:46:44;8.13;;;7.43;;
37288;SDS011;23174;49.462;11.000;2022-08-25T01:48:45;8.50;;;7.30;;
37288;SDS011;23174;49.462;11.000;2022-08-25T01:50:46;8.90;;;8.00;;
37288;SDS011;23174;49.462;11.000;2022-08-25T01:55:08;8.75;;;7.45;;
37288;SDS011;23174;49.462;11.000;2022-08-25T01:57:09;7.90;;;7.13;;
37288;SDS011;23174;49.462;11.000;2022-08-25T01:59:10;8.15;;;7.35;;
37288;SDS011;23174;49.462;11.000;2022-08-25T02:01:15;8.45;;;7.63;;
37288;SDS011;23174;49.462;11.000;2022-08-25T02:03:18;7.93;;;7.13;;
37288;SDS011;23174;49.462;11.000;2022-08-25T02:05:19;8.73;;;7.55;;
37288;SDS011;23174;49.462;11.000;2022-08-25T02:07:20;9.45;;;7.70;;
37288;SDS011;23174;49.462;11.000;2022-08-25T02:09:20;8.63;;;7.90;;
37288;SDS011;23174;49.462;11.000;2022-08-25T02:11:21;9.57;;;7.47;;
37288;SDS011;23174;49.462;11.000;2022-08-25T02:13:23;8.80;;;7.95;;
37288;SDS011;23174;49.462;11.000;2022-08-25T02:15:24;10.05;;;8.30;;
37288;SDS011;23174;49.462;11.000;2022-08-25T02:17:25;9.15;;;8.13;;
37288;SDS011;23174;49.462;11.000;2022-08-25T02:19:25;13.65;;;8.13;;
37288;SDS011;23174;49.462;11.000;2022-08-25T02:21:26;9.35;;;7.93;;
37288;SDS011;23174;49.462;11.000;2022-08-25T02:23:27;8.95;;;8.13;;
37288;SDS011;23174;49.462;11.000;2022-08-25T02:25:28;8.95;;;7.55;;
37288;SDS011;23174;49.462;11.000;2022-08-25T02:27:29;9.00;;;7.93;;
37288;SDS011;23174;49.462;11.000;2022-08-25T02:29:30;10.18;;;8.30;;
37288;SDS011;23174;49.462;11.000;2022-08-25T02:31:30;9.50;;;8.23;;
37288;SDS011;23174;49.462;11.000;2022-08-25T02:33:32;8.45;;;7.65;;
37288;SDS011;23174;49.462;11.000;2022-08-25T02:35:33;8.55;;;7.72;;
37288;SDS011;23174;49.462;11.000;2022-08-25T02:37:34;10.68;;;8.20;;
37288;SDS011;23174;49.462;11.000;2022-08-25T02:39:35;13.73;;;8.30;;
37288;SDS011;23174;49.462;11.000;2022-08-25T02:41:36;8.85;;;7.80;;
37288;SDS011;23174;49.462;11.000;2022-08-25T02:43:38;8.60;;;7.90;;
37288;SDS011;23174;49.462;11.000;2022-08-25T02:45:40;8.50;;;7.70;;
37288;SDS011;23174;49.462;11.000;2022-08-25T02:47:41;8.70;;;7.90;;
37288;SDS011;23174;49.462;11.000;2022-08-25T02:49:42;10.05;;;8.32;;
37288;SDS011;23174;49.462;11.000;2022-08-25T02:51:42;8.65;;;7.90;;
37288;SDS011;23174;49.462;11.000;2022-08-25T02:53:43;8.80;;;7.93;;
37288;SDS011;23174;49.462;11.000;2022-08-25T02:55:47;10.27;;;8.25;;
37288;SDS011;23174;49.462;11.000;2022-08-25T02:57:50;8.45;;;7.65;;
37288;SDS011;23174;49.462;11.000;2022-08-25T02:59:51;14.25;;;8.38;;
37288;SDS011;23174;49.462;11.000;2022-08-25T03:01:52;9.13;;;7.97;;
37288;SDS011;23174;49.462;11.000;2022-08-25T03:03:53;8.75;;;8.05;;
37288;SDS011;23174;49.462;11.000;2022-08-25T03:05:54;9.00;;;8.30;;
37288;SDS011;23174;49.462;11.000;2022-08-25T03:07:56;9.07;;;8.32;;
37288;SDS011;23174;49.462;11.000;2022-08-25T03:09:56;10.77;;;8.27;;
37288;SDS011;23174;49.462;11.000;2022-08-25T03:11:57;10.30;;;8.15;;
37288;SDS011;23174;49.462;11.000;2022-08-25T03:13:58;11.13;;;8.90;;
37288;SDS011;23174;49.462;11.000;2022-08-25T03:15:59;9.15;;;8.23;;
37288;SDS011;23174;49.462;11.000;2022-08-25T03:18:00;9.55;;;8.80;;
37288;SDS011;23174;49.462;11.000;2022-08-25T03:20:02;11.10;;;8.50;;
37288;SDS011;23174;49.462;11.000;2022-08-25T03:22:04;11.00;;;8.95;;
37288;SDS011;23174;49.462;11.000;2022-08-25T03:24:05;10.02;;;9.13;;
37288;SDS011;23174;49.462;11.000;2022-08-25T03:26:06;9.32;;;8.52;;
37288;SDS011;23174;49.462;11.000;2022-08-25T03:30:26;10.30;;;9.30;;
37288;SDS011;23174;49.462;11.000;2022-08-25T03:32:27;10.02;;;9.02;;
37288;SDS011;23174;49.462;11.000;2022-08-25T03:34:30;10.70;;;9.27;;
37288;SDS011;23174;49.462;11.000;2022-08-25T03:36:30;9.90;;;9.00;;
37288;SDS011;23174;49.462;11.000;2022-08-25T03:38:31;8.85;;;8.23;;
37288;SDS011;23174;49.462;11.000;2022-08-25T03:40:32;9.63;;;8.70;;
37288;SDS011;23174;49.462;11.000;2022-08-25T03:42:32;9.82;;;8.82;;
37288;SDS011;23174;49.462;11.000;2022-08-25T03:44:33;10.93;;;9.48;;
37288;SDS011;23174;49.462;11.000;2022-08-25T03:46:41;10.05;;;9.18;;
37288;SDS011;23174;49.462;11.000;2022-08-25T03:48:44;10.57;;;9.55;;
37288;SDS011;23174;49.462;11.000;2022-08-25T03:50:46;10.07;;;9.23;;
37288;SDS011;23174;49.462;11.000;2022-08-25T03:52:52;9.75;;;8.88;;
37288;SDS011;23174;49.462;11.000;2022-08-25T03:54:54;10.45;;;9.45;;
37288;SDS011;23174;49.462;11.000;2022-08-25T03:56:55;9.60;;;8.45;;
37288;SDS011;23174;49.462;11.000;2022-08-25T03:58:55;9.55;;;8.25;;
37288;SDS011;23174;49.462;11.000;2022-08-25T04:00:56;9.15;;;8.25;;
37288;SDS011;23174;49.462;11.000;2022-08-25T04:02:59;8.75;;;8.02;;
37288;SDS011;23174;49.462;11.000;2022-08-25T04:04:59;0.75;;;0.75;;
37288;SDS011;23174;49.462;11.000;2022-08-25T04:07:00;5.20;;;2.33;;
37288;SDS011;23174;49.462;11.000;2022-08-25T04:09:01;2.50;;;2.10;;
37288;SDS011;23174;49.462;11.000;2022-08-25T04:11:09;1.75;;;1.65;;
37288;SDS011;23174;49.462;11.000;2022-08-25T04:13:12;2.15;;;1.40;;
37288;SDS011;23174;49.462;11.000;2022-08-25T04:15:13;2.50;;;2.13;;
37288;SDS011;23174;49.462;11.000;2022-08-25T04:17:14;3.90;;;1.98;;
37288;SDS011;23174;49.462;11.000;2022-08-25T04:19:15;2.35;;;1.63;;
37288;SDS011;23174;49.462;11.000;2022-08-25T04:21:16;2.67;;;2.45;;
37288;SDS011;23174;49.462;11.000;2022-08-25T04:23:17;2.92;;;2.35;;
37288;SDS011;23174;49.462;11.000;2022-08-25T04:25:18;2.47;;;2.28;;
37288;SDS011;23174;49.462;11.000;2022-08-25T04:27:18;1.02;;;1.02;;
37288;SDS011;23174;49.462;11.000;2022-08-25T04:29:20;0.90;;;0.90;;
37288;SDS011;23174;49.462;11.000;2022-08-25T04:31:22;5.35;;;4.50;;
37288;SDS011;23174;49.462;11.000;2022-08-25T04:33:22;1.63;;;1.52;;
37288;SDS011;23174;49.462;11.000;2022-08-25T04:35:23;1.45;;;1.35;;
37288;SDS011;23174;49.462;11.000;2022-08-25T04:37:24;1.92;;;1.58;;
37288;SDS011;23174;49.462;11.000;2022-08-25T04:39:24;1.50;;;1.40;;
37288;SDS011;23174;49.462;11.000;2022-08-25T04:41:25;4.07;;;3.75;;
37288;SDS011;23174;49.462;11.000;2022-08-25T04:43:26;2.22;;;1.67;;
37288;SDS011;23174;49.462;11.000;2022-08-25T04:45:28;3.78;;;3.08;;
37288;SDS011;23174;49.462;11.000;2022-08-25T04:47:28;1.88;;;1.75;;
37288;SDS011;23174;49.462;11.000;2022-08-25T04:49:30;2.60;;;2.38;;
37288;SDS011;23174;49.462;11.000;2022-08-25T04:51:32;0.98;;;0.98;;
37288;SDS011;23174;49.462;11.000;2022-08-25T04:53:37;2.20;;;1.58;;
37288;SDS011;23174;49.462;11.000;2022-08-25T04:55:39;3.13;;;2.60;;
37288;SDS011;23174;49.462;11.000;2022-08-25T04:57:44;3.00;;;2.78;;
37288;SDS011;23174;49.462;11.000;2022-08-25T04:59:45;4.57;;;3.45;;
37288;SDS011;23174;49.462;11.000;2022-08-25T05:01:45;4.10;;;3.05;;
37288;SDS011;23174;49.462;11.000;2022-08-25T05:03:47;2.30;;;1.80;;
37288;SDS011;23174;49.462;11.000;2022-08-25T05:05:51;2.95;;;2.08;;
37288;SDS011;23174;49.462;11.000;2022-08-25T05:07:52;2.67;;;2.42;;
37288;SDS011;23174;49.462;11.000;2022-08-25T05:09:53;1.52;;;1.42;;
37288;SDS011;23174;49.462;11.000;2022-08-25T05:11:53;1.73;;;1.63;;
37288;SDS011;23174;49.462;11.000;2022-08-25T05:13:55;2.17;;;1.85;;
37288;SDS011;23174;49.462;11.000;2022-08-25T05:15:57;0.88;;;0.88;;
37288;SDS011;23174;49.462;11.000;2022-08-25T05:17:59;1.75;;;1.65;;
37288;SDS011;23174;49.462;11.000;2022-08-25T05:19:59;1.65;;;1.55;;
37288;SDS011;23174;49.462;11.000;2022-08-25T05:22:00;1.20;;;1.20;;
37288;SDS011;23174;49.462;11.000;2022-08-25T05:24:00;1.50;;;1.42;;
37288;SDS011;23174;49.462;11.000;2022-08-25T05:26:06;1.00;;;0.85;;
37288;SDS011;23174;49.462;11.000;2022-08-25T05:28:15;1.65;;;1.55;;
37288;SDS011;23174;49.462;11.000;2022-08-25T05:30:17;2.00;;;0.95;;
37288;SDS011;23174;49.462;11.000;2022-08-25T05:32:18;2.67;;;2.45;;
37288;SDS011;23174;49.462;11.000;2022-08-25T05:34:18;1.33;;;1.33;;
37288;SDS011;23174;49.462;11.000;2022-08-25T05:36:20;1.75;;;1.25;;
37288;SDS011;23174;49.462;11.000;2022-08-25T05:38:21;2.08;;;1.92;;
37288;SDS011;23174;49.462;11.000;2022-08-25T05:40:22;3.03;;;1.45;;
37288;SDS011;23174;49.462;11.000;2022-08-25T05:42:23;4.20;;;3.67;;
37288;SDS011;23174;49.462;11.000;2022-08-25T05:44:24;2.78;;;1.30;;
37288;SDS011;23174;49.462;11.000;2022-08-25T05:46:25;3.60;;;2.72;;
37288;SDS011;23174;49.462;11.000;2022-08-25T05:48:25;7.00;;;3.78;;
37288;SDS011;23174;49.462;11.000;2022-08-25T05:50:26;1.63;;;1.52;;
37288;SDS011;23174;49.462;11.000;2022-08-25T05:52:27;1.60;;;1.50;;
37288;SDS011;23174;49.462;11.000;2022-08-25T05:54:27;2.88;;;2.60;;
37288;SDS011;23174;49.462;11.000;2022-08-25T05:56:28;0.70;;;0.70;;
37288;SDS011;23174;49.462;11.000;2022-08-25T05:58:29;1.17;;;1.08;;
37288;SDS011;23174;49.462;11.000;2022-08-25T06:00:30;1.75;;;1.30;;
37288;SDS011;23174;49.462;11.000;2022-08-25T06:02:31;4.57;;;3.45;;
37288;SDS011;23174;49.462;11.000;2022-08-25T06:04:42;3.63;;;2.67;;
37288;SDS011;23174;49.462;11.000;2022-08-25T06:06:43;2.42;;;2.22;;
37288;SDS011;23174;49.462;11.000;2022-08-25T06:08:43;3.10;;;2.05;;
37288;SDS011;23174;49.462;11.000;2022-08-25T06:10:44;4.03;;;3.63;;
37288;SDS011;23174;49.462;11.000;2022-08-25T06:12:50;10.85;;;8.23;;
37288;SDS011;23174;49.462;11.000;2022-08-25T06:14:51;11.30;;;8.25;;
37288;SDS011;23174;49.462;11.000;2022-08-25T06:16:51;8.88;;;7.45;;
37288;SDS011;23174;49.462;11.000;2022-08-25T06:18:52;14.55;;;8.55;;
37288;SDS011;23174;49.462;11.000;2022-08-25T06:20:54;10.07;;;8.00;;
37288;SDS011;23174;49.462;11.000;2022-08-25T06:22:55;8.70;;;7.57;;
37288;SDS011;23174;49.462;11.000;2022-08-25T06:24:56;11.57;;;8.43;;
37288;SDS011;23174;49.462;11.000;2022-08-25T06:26:57;9.13;;;7.22;;
37288;SDS011;23174;49.462;11.000;2022-08-25T06:28:57;15.68;;;8.82;;
37288;SDS011;23174;49.462;11.000;2022-08-25T06:30:59;8.55;;;7.68;;
37288;SDS011;23174;49.462;11.000;2022-08-25T06:33:00;10.15;;;7.75;;
37288;SDS011;23174;49.462;11.000;2022-08-25T06:35:01;8.90;;;8.00;;
37288;SDS011;23174;49.462;11.000;2022-08-25T06:37:02;12.10;;;9.27;;
37288;SDS011;23174;49.462;11.000;2022-08-25T06:39:03;9.98;;;7.80;;
37288;SDS011;23174;49.462;11.000;2022-08-25T06:41:04;12.73;;;7.47;;
37288;SDS011;23174;49.462;11.000;2022-08-25T06:43:06;9.05;;;7.93;;
37288;SDS011;23174;49.462;11.000;2022-08-25T06:45:08;12.95;;;9.48;;
37288;SDS011;23174;49.462;11.000;2022-08-25T06:47:09;11.48;;;8.07;;
37288;SDS011;23174;49.462;11.000;2022-08-25T06:49:10;8.93;;;8.13;;
37288;SDS011;23174;49.462;11.000;2022-08-25T06:51:11;11.60;;;8.95;;
37288;SDS011;23174;49.462;11.000;2022-08-25T06:53:13;9.35;;;7.32;;
37288;SDS011;23174;49.462;11.000;2022-08-25T06:55:14;14.55;;;9.77;;
37288;SDS011;23174;49.462;11.000;2022-08-25T06:57:15;13.13;;;8.45;;
37288;SDS011;23174;49.462;11.000;2022-08-25T06:59:15;11.45;;;8.63;;
37288;SDS011;23174;49.462;11.000;2022-08-25T07:01:18;9.15;;;8.23;;
37288;SDS011;23174;49.462;11.000;2022-08-25T07:03:53;15.48;;;8.68;;
37288;SDS011;23174;49.462;11.000;2022-08-25T07:05:56;8.93;;;4.90;;
37288;SDS011;23174;49.462;11.000;2022-08-25T07:07:56;18.38;;;7.68;;
37288;SDS011;23174;49.462;11.000;2022-08-25T07:09:57;17.00;;;8.40;;
37288;SDS011;23174;49.462;11.000;2022-08-25T07:11:58;11.32;;;9.93;;
37288;SDS011;23174;49.462;11.000;2022-08-25T07:13:59;10.43;;;9.40;;
37288;SDS011;23174;49.462;11.000;2022-08-25T07:16:02;12.05;;;8.30;;
37288;SDS011;23174;49.462;11.000;2022-08-25T07:18:03;9.20;;;7.78;;
37288;SDS011;23174;49.462;11.000;2022-08-25T07:20:04;12.02;;;9.25;;
37288;SDS011;23174;49.462;11.000;2022-08-25T07:22:05;9.57;;;7.07;;
37288;SDS011;23174;49.462;11.000;2022-08-25T07:24:07;10.60;;;7.25;;
37288;SDS011;23174;49.462;11.000;2022-08-25T07:26:15;20.27;;;9.75;;
37288;SDS011;23174;49.462;11.000;2022-08-25T07:28:18;12.70;;;8.73;;
37288;SDS011;23174;49.462;11.000;2022-08-25T07:30:20;12.07;;;9.07;;
37288;SDS011;23174;49.462;11.000;2022-08-25T07:32:22;10.43;;;8.43;;
37288;SDS011;23174;49.462;11.000;2022-08-25T07:34:22;9.05;;;5.78;;
37288;SDS011;23174;49.462;11.000;2022-08-25T07:36:42;10.35;;;8.77;;
37288;SDS011;23174;49.462;11.000;2022-08-25T07:38:43;11.43;;;8.75;;
37288;SDS011;23174;49.462;11.000;2022-08-25T07:40:43;10.48;;;9.38;;
37288;SDS011;23174;49.462;11.000;2022-08-25T07:42:44;10.65;;;8.15;;
37288;SDS011;23174;49.462;11.000;2022-08-25T07:44:44;9.43;;;8.50;;
37288;SDS011;23174;49.462;11.000;2022-08-25T07:46:46;13.05;;;10.25;;
37288;SDS011;23174;49.462;11.000;2022-08-25T07:48:47;9.27;;;8.00;;
37288;SDS011;23174;49.462;11.000;2022-08-25T07:50:48;10.63;;;9.45;;
37288;SDS011;23174;49.462;11.000;2022-08-25T07:52:48;10.63;;;9.18;;
37288;SDS011;23174;49.462;11.000;2022-08-25T07:54:50;11.93;;;9.48;;
37288;SDS011;23174;49.462;11.000;2022-08-25T07:56:53;11.13;;;8.88;;
37288;SDS011;23174;49.462;11.000;2022-08-25T07:58:53;8.93;;;8.05;;
37288;SDS011;23174;49.462;11.000;2022-08-25T08:00:54;11.23;;;7.88;;
37288;SDS011;23174;49.462;11.000;2022-08-25T08:02:55;11.30;;;8.43;;
37288;SDS011;23174;49.462;11.000;2022-08-25T08:04:57;9.75;;;8.75;;
37288;SDS011;23174;49.462;11.000;2022-08-25T08:06:58;10.63;;;9.23;;
37288;SDS011;23174;49.462;11.000;2022-08-25T08:08:58;10.45;;;8.48;;
37288;SDS011;23174;49.462;11.000;2022-08-25T08:11:01;9.90;;;7.70;;
37288;SDS011;23174;49.462;11.000;2022-08-25T08:13:01;8.05;;;7.25;;
37288;SDS011;23174;49.462;11.000;2022-08-25T08:15:03;13.68;;;8.27;;
37288;SDS011;23174;49.462;11.000;2022-08-25T08:17:05;9.50;;;8.48;;
37288;SDS011;23174;49.462;11.000;2022-08-25T08:19:06;10.20;;;8.75;;
37288;SDS011;23174;49.462;11.000;2022-08-25T08:21:11;8.57;;;7.60;;
37288;SDS011;23174;49.462;11.000;2022-08-25T08:23:17;10.27;;;8.23;;
37288;SDS011;23174;49.462;11.000;2022-08-25T08:25:17;16.30;;;8.43;;
37288;SDS011;23174;49.462;11.000;2022-08-25T08:27:18;7.93;;;7.10;;
37288;SDS011;23174;49.462;11.000;2022-08-25T08:29:18;12.43;;;7.30;;
37288;SDS011;23174;49.462;11.000;2022-08-25T08:31:22;6.93;;;6.22;;
37288;SDS011;23174;49.462;11.000;2022-08-25T08:33:25;7.65;;;6.15;;
37288;SDS011;23174;49.462;11.000;2022-08-25T08:35:27;7.40;;;6.50;;
37288;SDS011;23174;49.462;11.000;2022-08-25T08:37:27;11.95;;;6.55;;
37288;SDS011;23174;49.462;11.000;2022-08-25T08:39:28;7.47;;;6.80;;
37288;SDS011;23174;49.462;11.000;2022-08-25T08:41:48;9.23;;;8.30;;
37288;SDS011;23174;49.462;11.000;2022-08-25T08:46:58;10.18;;;7.13;;
37288;SDS011;23174;49.462;11.000;2022-08-25T08:49:04;10.23;;;7.32;;
37288;SDS011;23174;49.462;11.000;2022-08-25T08:53:23;10.07;;;6.60;;
37288;SDS011;23174;49.462;11.000;2022-08-25T08:57:32;7.40;;;6.20;;
37288;SDS011;23174;49.462;11.000;2022-08-25T08:59:49;7.30;;;6.20;;
37288;SDS011;23174;49.462;11.000;2022-08-25T09:01:57;7.55;;;6.38;;
37288;SDS011;23174;49.462;11.000;2022-08-25T09:04:07;7.47;;;6.80;;
37288;SDS011;23174;49.462;11.000;2022-08-25T09:06:23;14.82;;;6.60;;
37288;SDS011;23174;49.462;11.000;2022-08-25T09:08:37;7.18;;;5.50;;
37288;SDS011;23174;49.462;11.000;2022-08-25T09:13:01;7.85;;;6.40;;
37288;SDS011;23174;49.462;11.000;2022-08-25T09:24:31;9.45;;;6.63;;
37288;SDS011;23174;49.462;11.000;2022-08-25T09:29:06;6.90;;;5.65;;
37288;SDS011;23174;49.462;11.000;2022-08-25T09:31:23;7.95;;;6.68;;
37288;SDS011;23174;49.462;11.000;2022-08-25T09:33:27;6.53;;;5.93;;
37288;SDS011;23174;49.462;11.000;2022-08-25T09:35:30;7.78;;;5.00;;
37288;SDS011;23174;49.462;11.000;2022-08-25T09:37:31;6.22;;;5.63;;
37288;SDS011;23174;49.462;11.000;2022-08-25T09:39:32;6.70;;;6.05;;
37288;SDS011;23174;49.462;11.000;2022-08-25T09:41:41;6.00;;;5.40;;
37288;SDS011;23174;49.462;11.000;2022-08-25T09:43:52;7.38;;;6.00;;
37288;SDS011;23174;49.462;11.000;2022-08-25T09:46:11;6.05;;;5.55;;
37288;SDS011;23174;49.462;11.000;2022-08-25T09:48:19;7.18;;;5.30;;
37288;SDS011;23174;49.462;11.000;2022-08-25T09:50:23;5.32;;;4.82;;
37288;SDS011;23174;49.462;11.000;2022-08-25T09:52:25;5.93;;;5.43;;
37288;SDS011;23174;49.462;11.000;2022-08-25T09:54:37;6.38;;;5.78;;
37288;SDS011;23174;49.462;11.000;2022-08-25T10:03:20;5.88;;;5.22;;
37288;SDS011;23174;49.462;11.000;2022-08-25T10:05:24;3.83;;;3.40;;
37288;SDS011;23174;49.462;11.000;2022-08-25T10:07:29;5.18;;;4.65;;
37288;SDS011;23174;49.462;11.000;2022-08-25T10:09:39;5.93;;;5.32;;
37288;SDS011;23174;49.462;11.000;2022-08-25T10:11:43;6.35;;;5.20;;
37288;SDS011;23174;49.462;11.000;2022-08-25T10:13:47;6.60;;;6.07;;
37288;SDS011;23174;49.462;11.000;2022-08-25T10:18:27;6.72;;;5.95;;
37288;SDS011;23174;49.462;11.000;2022-08-25T10:20:28;6.57;;;5.57;;
37288;SDS011;23174;49.462;11.000;2022-08-25T10:22:29;5.15;;;4.60;;
37288;SDS011;23174;49.462;11.000;2022-08-25T10:24:33;6.05;;;5.55;;
37288;SDS011;23174;49.462;11.000;2022-08-25T10:31:12;6.50;;;5.90;;
37288;SDS011;23174;49.462;11.000;2022-08-25T10:39:52;7.50;;;6.53;;
37288;SDS011;23174;49.462;11.000;2022-08-25T10:44:38;6.60;;;5.97;;
37288;SDS011;23174;49.462;11.000;2022-08-25T10:49:30;6.18;;;5.68;;
37288;SDS011;23174;49.462;11.000;2022-08-25T10:56:37;7.55;;;6.35;;
37288;SDS011;23174;49.462;11.000;2022-08-25T10:58:58;8.00;;;6.35;;
37288;SDS011;23174;49.462;11.000;2022-08-25T11:01:11;6.25;;;5.43;;
37288;SDS011;23174;49.462;11.000;2022-08-25T11:07:45;8.18;;;5.80;;
37288;SDS011;23174;49.462;11.000;2022-08-25T11:09:49;5.97;;;5.47;;
37288;SDS011;23174;49.462;11.000;2022-08-25T11:12:03;6.85;;;6.15;;
37288;SDS011;23174;49.462;11.000;2022-08-25T11:14:16;6.90;;;6.22;;
37288;SDS011;23174;49.462;11.000;2022-08-25T11:18:58;6.15;;;5.60;;
37288;SDS011;23174;49.462;11.000;2022-08-25T11:21:38;6.97;;;5.53;;
37288;SDS011;23174;49.462;11.000;2022-08-25T11:23:57;4.97;;;4.47;;
37288;SDS011;23174;49.462;11.000;2022-08-25T11:26:10;5.85;;;4.10;;
37288;SDS011;23174;49.462;11.000;2022-08-25T11:30:35;5.80;;;5.22;;
37288;SDS011;23174;49.462;11.000;2022-08-25T11:32:37;6.07;;;5.38;;
37288;SDS011;23174;49.462;11.000;2022-08-25T11:34:38;6.45;;;5.85;;
37288;SDS011;23174;49.462;11.000;2022-08-25T11:36:41;6.10;;;5.53;;
37288;SDS011;23174;49.462;11.000;2022-08-25T11:45:21;7.13;;;5.45;;
37288;SDS011;23174;49.462;11.000;2022-08-25T11:49:54;8.60;;;6.03;;
37288;SDS011;23174;49.462;11.000;2022-08-25T11:52:08;6.07;;;5.25;;
37288;SDS011;23174;49.462;11.000;2022-08-25T11:54:35;4.97;;;4.40;;
37288;SDS011;23174;49.462;11.000;2022-08-25T11:56:41;6.90;;;5.10;;
37288;SDS011;23174;49.462;11.000;2022-08-25T11:59:01;6.43;;;5.82;;
37288;SDS011;23174;49.462;11.000;2022-08-25T12:01:02;2.67;;;2.35;;
37288;SDS011;23174;49.462;11.000;2022-08-25T12:03:44;4.57;;;4.18;;
37288;SDS011;23174;49.462;11.000;2022-08-25T12:11:50;7.68;;;5.47;;
37288;SDS011;23174;49.462;11.000;2022-08-25T12:13:53;6.70;;;5.20;;
37288;SDS011;23174;49.462;11.000;2022-08-25T12:16:36;5.35;;;3.47;;
37288;SDS011;23174;49.462;11.000;2022-08-25T12:18:40;4.22;;;3.83;;
37288;SDS011;23174;49.462;11.000;2022-08-25T12:22:55;4.70;;;4.30;;
37288;SDS011;23174;49.462;11.000;2022-08-25T12:25:02;5.53;;;5.03;;
37288;SDS011;23174;49.462;11.000;2022-08-25T12:36:31;4.57;;;3.38;;
37288;SDS011;23174;49.462;11.000;2022-08-25T12:38:33;5.68;;;5.22;;
37288;SDS011;23174;49.462;11.000;2022-08-25T12:42:43;8.00;;;4.88;;
37288;SDS011;23174;49.462;11.000;2022-08-25T12:44:45;7.32;;;5.28;;
37288;SDS011;23174;49.462;11.000;2022-08-25T12:46:51;7.63;;;5.38;;
37288;SDS011;23174;49.462;11.000;2022-08-25T12:53:39;7.63;;;5.35;;
37288;SDS011;23174;49.462;11.000;2022-08-25T12:55:50;4.18;;;3.70;;
37288;SDS011;23174;49.462;11.000;2022-08-25T12:57:55;5.10;;;4.65;;
37288;SDS011;23174;49.462;11.000;2022-08-25T13:00:03;3.42;;;3.22;;
37288;SDS011;23174;49.462;11.000;2022-08-25T13:04:40;4.43;;;3.50;;
37288;SDS011;23174;49.462;11.000;2022-08-25T13:09:33;5.82;;;3.30;;
37288;SDS011;23174;49.462;11.000;2022-08-25T13:14:11;7.47;;;3.83;;
37288;SDS011;23174;49.462;11.000;2022-08-25T13:16:19;4.43;;;3.75;;
37288;SDS011;23174;49.462;11.000;2022-08-25T13:18:23;7.93;;;4.68;;
37288;SDS011;23174;49.462;11.000;2022-08-25T13:20:29;6.57;;;4.85;;
37288;SDS011;23174;49.462;11.000;2022-08-25T13:22:30;6.30;;;5.70;;
37288;SDS011;23174;49.462;11.000;2022-08-25T13:24:32;9.75;;;5.03;;
37288;SDS011;23174;49.462;11.000;2022-08-25T13:26:39;7.55;;;5.18;;
37288;SDS011;23174;49.462;11.000;2022-08-25T13:28:42;7.70;;;5.18;;
37288;SDS011;23174;49.462;11.000;2022-08-25T13:30:43;5.28;;;4.88;;
37288;SDS011;23174;49.462;11.000;2022-08-25T13:32:44;5.97;;;5.45;;
37288;SDS011;23174;49.462;11.000;2022-08-25T13:34:44;6.22;;;5.32;;
37288;SDS011;23174;49.462;11.000;2022-08-25T13:36:46;7.38;;;4.40;;
37288;SDS011;23174;49.462;11.000;2022-08-25T13:39:13;6.18;;;5.07;;
37288;SDS011;23174;49.462;11.000;2022-08-25T13:41:19;5.65;;;5.15;;
37288;SDS011;23174;49.462;11.000;2022-08-25T13:43:24;11.05;;;4.93;;
37288;SDS011;23174;49.462;11.000;2022-08-25T13:45:26;7.13;;;4.43;;
37288;SDS011;23174;49.462;11.000;2022-08-25T13:47:33;5.80;;;5.20;;
37288;SDS011;23174;49.462;11.000;2022-08-25T13:49:36;5.28;;;4.78;;
37288;SDS011;23174;49.462;11.000;2022-08-25T13:51:38;6.10;;;4.63;;
37288;SDS011;23174;49.462;11.000;2022-08-25T13:53:52;4.45;;;3.97;;
37288;SDS011;23174;49.462;11.000;2022-08-25T13:55:58;3.35;;;2.70;;
37288;SDS011;23174;49.462;11.000;2022-08-25T13:58:01;6.03;;;4.32;;
37288;SDS011;23174;49.462;11.000;2022-08-25T14:00:05;4.82;;;3.75;;
37288;SDS011;23174;49.462;11.000;2022-08-25T14:02:09;6.53;;;4.53;;